Time,TemperatureF,DewpointF,PressureIn,WindDirection,WindDirectionDegrees,WindSpeedMPH,WindSpeedGustMPH,Humidity,HourlyPrecipIn,Conditions,Clouds,dailyrainin,SolarRadiationWatts/m^2,SoftwareType,DateUTC
2013-01-08 00:03:00,18.9,16.5,30.01,SSE,154,0.0,0.0,90,0.00,,---,0.00,0.00,VWS V14.00,2013-01-08 06:03:00,
2013-01-08 00:08:00,18.5,16.1,30.01,SSE,154,0.0,0.0,90,0.00,,---,0.00,0.00,VWS V14.00,2013-01-08 06:08:00,
2013-01-08 00:13:00,18.2,15.8,30.01,SSE,154,0.0,0.0,90,0.00,,---,0.00,0.00,VWS V14.00,2013-01-08 06:13:00,
2013-01-08 00:18:00,17.9,15.5,30.01,SSE,154,0.0,0.0,90,0.00,,---,0.00,0.00,VWS V14.00,2013-01-08 06:18:00,
2013-01-08 00:23:00,17.7,15.3,30.01,SSE,154,0.0,0.0,90,0.00,,---,0.00,0.00,VWS V14.00,2013-01-08 06:23:00,
2013-01-08 00:28:00,17.5,15.3,30.01,SSE,154,0.0,0.0,91,0.00,,---,0.00,0.00,VWS V14.00,2013-01-08 06:28:00,
2013-01-08 00:33:00,17.3,15.1,30.01,SSE,154,0.0,0.0,91,0.00,,---,0.00,0.00,VWS V14.00,2013-01-08 06:33:00,
2013-01-08 00:38:00,17.2,15.0,30.01,SSE,154,0.0,0.0,91,0.00,,---,0.00,0.00,VWS V14.00,2013-01-08 06:38:00,
2013-01-08 00:43:00,17.1,14.9,30.01,SSE,154,0.0,0.0,91,0.00,,---,0.00,0.00,VWS V14.00,2013-01-08 06:43:00,
2013-01-08 00:48:00,17.0,14.8,30.01,SSE,154,0.0,0.0,91,0.00,,---,0.00,0.00,VWS V14.00,2013-01-08 06:48:00,
2013-01-08 00:53:00,16.9,14.7,30.02,SSE,154,0.0,0.0,91,0.00,,---,0.00,0.00,VWS V14.00,2013-01-08 06:53:00,
2013-01-08 00:58:00,16.9,15.0,30.01,SSE,154,0.0,0.0,92,0.00,,---,0.00,0.00,VWS V14.00,2013-01-08 06:58:00,
2013-01-08 01:03:00,16.9,15.0,30.01,SSE,154,0.0,0.0,92,0.00,,---,0.00,0.00,VWS V14.00,2013-01-08 07:03:00,
2013-01-08 01:08:00,16.8,14.9,30.01,SSE,154,0.0,0.0,92,0.00,,---,0.00,0.00,VWS V14.00,2013-01-08 07:08:00,
2013-01-08 01:14:00,16.8,14.9,30.01,SSE,154,0.0,0.0,92,0.00,,---,0.00,0.00,VWS V14.00,2013-01-08 07:14:00,
2013-01-08 01:19:00,16.7,14.8,30.01,SSE,154,0.0,0.0,92,0.00,,---,0.00,0.00,VWS V14.00,2013-01-08 07:19:00,
2013-01-08 01:24:00,16.6,14.7,30.01,SSE,154,0.0,0.0,92,0.00,,---,0.00,0.00,VWS V14.00,2013-01-08 07:24:00,
2013-01-08 01:29:00,16.4,14.2,30.01,SSE,154,0.0,0.0,91,0.00,,---,0.00,0.00,VWS V14.00,2013-01-08 07:29:00,
2013-01-08 01:34:00,16.3,14.4,30.01,SSE,154,0.0,0.0,92,0.00,,---,0.00,0.00,VWS V14.00,2013-01-08 07:34:00,
2013-01-08 01:39:00,16.2,14.3,30.01,SSE,154,0.0,0.0,92,0.00,,---,0.00,0.00,VWS V14.00,2013-01-08 07:39:00,
2013-01-08 01:44:00,16.0,13.8,30.01,SSE,154,0.0,0.0,91,0.00,,---,0.00,0.00,VWS V14.00,2013-01-08 07:44:00,
2013-01-08 01:49:00,15.8,13.6,30.02,SSE,154,0.0,0.0,91,0.00,,---,0.00,0.00,VWS V14.00,2013-01-08 07:49:00,
2013-01-08 01:54:00,15.6,13.4,30.02,SSE,154,0.0,0.0,91,0.00,,---,0.00,0.00,VWS V14.00,2013-01-08 07:54:00,
2013-01-08 02:00:00,15.4,13.2,30.02,SSE,154,0.0,0.0,91,0.00,,---,0.00,0.00,VWS V14.00,2013-01-08 08:00:00,
2013-01-08 02:05:00,15.1,12.7,30.01,SSE,154,0.0,0.0,90,0.00,,---,0.00,0.00,VWS V14.00,2013-01-08 08:05:00,
2013-01-08 02:10:00,14.9,12.5,30.01,SSE,154,0.0,0.0,90,0.00,,---,0.00,0.00,VWS V14.00,2013-01-08 08:10:00,
2013-01-08 02:15:00,14.8,12.6,30.01,SSE,154,0.0,0.0,91,0.00,,---,0.00,0.00,VWS V14.00,2013-01-08 08:15:00,
2013-01-08 02:20:00,14.7,12.6,30.01,SSE,154,0.0,0.0,91,0.00,,---,0.00,0.00,VWS V14.00,2013-01-08 08:20:00,
2013-01-08 02:25:00,14.5,12.4,30.01,SSE,154,0.0,0.0,91,0.00,,---,0.00,0.00,VWS V14.00,2013-01-08 08:25:00,
2013-01-08 02:30:00,14.3,11.9,30.01,SSE,154,0.0,0.0,90,0.00,,---,0.00,0.00,VWS V14.00,2013-01-08 08:30:00,
2013-01-08 02:35:00,14.0,11.6,30.01,SSE,154,0.0,0.0,90,0.00,,---,0.00,0.00,VWS V14.00,2013-01-08 08:35:00,
2013-01-08 02:41:00,13.7,11.3,30.01,SSE,154,0.0,0.0,90,0.00,,---,0.00,0.00,VWS V14.00,2013-01-08 08:41:00,
2013-01-08 02:46:00,13.9,11.8,30.01,SSE,154,0.0,0.0,91,0.00,,---,0.00,0.00,VWS V14.00,2013-01-08 08:46:00,
2013-01-08 02:51:00,14.0,12.1,30.01,SSE,154,0.0,0.0,92,0.00,,---,0.00,0.00,VWS V14.00,2013-01-08 08:51:00,
2013-01-08 02:56:00,13.9,12.0,30.01,SSE,154,0.0,0.0,92,0.00,,---,0.00,0.00,VWS V14.00,2013-01-08 08:56:00,
2013-01-08 03:01:00,13.8,11.7,30.01,SSE,154,0.0,0.0,91,0.00,,---,0.00,0.00,VWS V14.00,2013-01-08 09:01:00,
2013-01-08 03:06:00,13.6,11.5,30.01,SSE,154,0.0,0.0,91,0.00,,---,0.00,0.00,VWS V14.00,2013-01-08 09:06:00,
2013-01-08 03:11:00,13.4,11.0,30.01,SSE,154,0.0,0.0,90,0.00,,---,0.00,0.00,VWS V14.00,2013-01-08 09:11:00,
2013-01-08 03:16:00,13.2,11.1,30.00,SSE,154,0.0,0.0,91,0.00,,---,0.00,0.00,VWS V14.00,2013-01-08 09:16:00,
2013-01-08 03:21:00,13.3,11.2,30.00,SSE,154,0.0,0.0,91,0.00,,---,0.00,0.00,VWS V14.00,2013-01-08 09:21:00,
2013-01-08 03:26:00,13.1,11.0,30.00,SSE,154,0.0,0.0,91,0.00,,---,0.00,0.00,VWS V14.00,2013-01-08 09:26:00,
2013-01-08 03:32:00,12.9,10.5,30.00,SSE,154,0.0,0.0,90,0.00,,---,0.00,0.00,VWS V14.00,2013-01-08 09:32:00,
2013-01-08 03:36:00,12.6,10.2,30.00,SSE,154,0.0,0.0,90,0.00,,---,0.00,0.00,VWS V14.00,2013-01-08 09:36:00,
2013-01-08 03:42:00,12.4,10.0,30.00,SSE,154,0.0,0.0,90,0.00,,---,0.00,0.00,VWS V14.00,2013-01-08 09:42:00,
2013-01-08 03:47:00,12.2,9.8,30.00,SSE,154,0.0,0.0,90,0.00,,---,0.00,0.00,VWS V14.00,2013-01-08 09:47:00,
2013-01-08 03:51:00,12.0,9.6,30.00,SSE,154,0.0,0.0,90,0.00,,---,0.00,0.00,VWS V14.00,2013-01-08 09:51:00,
2013-01-08 03:57:00,11.9,9.5,30.00,SSE,154,0.0,0.0,90,0.00,,---,0.00,0.00,VWS V14.00,2013-01-08 09:57:00,
2013-01-08 04:02:00,11.7,9.3,30.00,SSE,154,0.0,0.0,90,0.00,,---,0.00,0.00,VWS V14.00,2013-01-08 10:02:00,
2013-01-08 04:07:00,11.6,9.2,30.00,SSE,154,0.0,0.0,90,0.00,,---,0.00,0.00,VWS V14.00,2013-01-08 10:07:00,
2013-01-08 04:12:00,11.5,9.1,30.00,SSE,154,0.0,0.0,90,0.00,,---,0.00,0.00,VWS V14.00,2013-01-08 10:12:00,
2013-01-08 04:17:00,11.4,9.0,29.99,SSE,154,0.0,0.0,90,0.00,,---,0.00,0.00,VWS V14.00,2013-01-08 10:17:00,
2013-01-08 04:22:00,11.3,8.9,29.99,SSE,154,0.0,0.0,90,0.00,,---,0.00,0.00,VWS V14.00,2013-01-08 10:22:00,
2013-01-08 04:27:00,11.2,8.9,29.99,SSE,154,0.0,0.0,90,0.00,,---,0.00,0.00,VWS V14.00,2013-01-08 10:27:00,
2013-01-08 04:32:00,11.2,8.9,29.99,SSE,154,0.0,0.0,90,0.00,,---,0.00,0.00,VWS V14.00,2013-01-08 10:32:00,
2013-01-08 04:37:00,11.0,8.6,29.99,SSE,154,0.0,0.0,90,0.00,,---,0.00,0.00,VWS V14.00,2013-01-08 10:37:00,
2013-01-08 04:43:00,11.0,8.9,29.99,SSE,154,0.0,0.0,91,0.00,,---,0.00,0.00,VWS V14.00,2013-01-08 10:43:00,
2013-01-08 04:48:00,11.0,8.6,29.99,SSE,154,0.0,0.0,90,0.00,,---,0.00,0.00,VWS V14.00,2013-01-08 10:48:00,
2013-01-08 04:53:00,10.8,8.4,29.99,SSE,154,0.0,0.0,90,0.00,,---,0.00,0.00,VWS V14.00,2013-01-08 10:53:00,
2013-01-08 04:58:00,10.6,8.2,29.99,SSE,154,0.0,0.0,90,0.00,,---,0.00,0.00,VWS V14.00,2013-01-08 10:58:00,
2013-01-08 05:03:00,10.5,8.1,29.98,SSE,154,0.0,0.0,90,0.00,,---,0.00,0.00,VWS V14.00,2013-01-08 11:03:00,
2013-01-08 05:08:00,10.4,8.1,29.98,SSE,154,0.0,0.0,90,0.00,,---,0.00,0.00,VWS V14.00,2013-01-08 11:08:00,
2013-01-08 05:13:00,10.5,8.1,29.98,SSE,154,0.0,0.0,90,0.00,,---,0.00,0.00,VWS V14.00,2013-01-08 11:13:00,
2013-01-08 05:18:00,10.7,8.6,29.98,SSE,154,0.0,0.0,91,0.00,,---,0.00,0.00,VWS V14.00,2013-01-08 11:18:00,
2013-01-08 05:23:00,10.7,8.6,29.98,SSE,154,0.0,0.0,91,0.00,,---,0.00,0.00,VWS V14.00,2013-01-08 11:23:00,
2013-01-08 05:28:00,10.8,8.7,29.99,SSE,154,0.0,0.0,91,0.00,,---,0.00,0.00,VWS V14.00,2013-01-08 11:28:00,
2013-01-08 05:33:00,10.7,8.4,29.99,SSE,154,0.0,0.0,90,0.00,,---,0.00,0.00,VWS V14.00,2013-01-08 11:33:00,
2013-01-08 05:39:00,10.6,8.2,29.98,SSE,154,0.0,0.0,90,0.00,,---,0.00,0.00,VWS V14.00,2013-01-08 11:39:00,
2013-01-08 05:44:00,10.7,8.6,29.98,SSE,154,0.0,0.0,91,0.00,,---,0.00,0.00,VWS V14.00,2013-01-08 11:44:00,
2013-01-08 05:49:00,10.6,8.2,29.98,SSE,154,0.0,0.0,90,0.00,,---,0.00,0.00,VWS V14.00,2013-01-08 11:49:00,
2013-01-08 05:54:00,10.5,8.1,29.98,SSE,154,0.0,0.0,90,0.00,,---,0.00,0.00,VWS V14.00,2013-01-08 11:54:00,
2013-01-08 05:59:00,10.4,8.1,29.98,SSE,154,0.0,0.0,90,0.00,,---,0.00,0.00,VWS V14.00,2013-01-08 11:59:00,
2013-01-08 06:04:00,10.7,8.6,29.98,SSE,154,0.0,0.0,91,0.00,,---,0.00,0.00,VWS V14.00,2013-01-08 12:04:00,
2013-01-08 06:09:00,10.7,8.6,29.98,SSE,154,0.0,0.0,91,0.00,,---,0.00,0.00,VWS V14.00,2013-01-08 12:09:00,
2013-01-08 06:14:00,10.7,8.6,29.98,SSE,154,0.0,0.0,91,0.00,,---,0.00,0.00,VWS V14.00,2013-01-08 12:14:00,
2013-01-08 06:19:00,10.8,8.7,29.98,SSE,154,0.0,0.0,91,0.00,,---,0.00,0.00,VWS V14.00,2013-01-08 12:19:00,
2013-01-08 06:24:00,10.9,8.8,29.98,SSE,154,0.0,0.0,91,0.00,,---,0.00,0.00,VWS V14.00,2013-01-08 12:24:00,
2013-01-08 06:29:00,11.1,9.2,29.98,SSE,154,0.0,0.0,92,0.00,,---,0.00,0.00,VWS V14.00,2013-01-08 12:29:00,
2013-01-08 06:35:00,11.2,9.3,29.98,SSE,154,0.0,0.0,92,0.00,,---,0.00,0.00,VWS V14.00,2013-01-08 12:35:00,
2013-01-08 06:40:00,11.5,9.6,29.98,SSE,154,0.0,0.0,92,0.00,,---,0.00,0.00,VWS V14.00,2013-01-08 12:40:00,
2013-01-08 06:45:00,11.9,10.3,29.98,SSE,154,0.0,0.0,93,0.00,,---,0.00,0.00,VWS V14.00,2013-01-08 12:45:00,
2013-01-08 06:50:00,12.6,11.0,29.98,SSE,154,0.0,0.0,93,0.00,,---,0.00,0.00,VWS V14.00,2013-01-08 12:50:00,
2013-01-08 06:55:00,13.0,11.6,29.98,SSE,154,0.0,0.0,94,0.00,,---,0.00,0.00,VWS V14.00,2013-01-08 12:55:00,
2013-01-08 07:00:00,13.8,12.4,29.99,SSE,154,0.0,0.0,94,0.00,,---,0.00,0.00,VWS V14.00,2013-01-08 13:00:00,
2013-01-08 07:05:00,14.8,13.6,29.99,SSE,154,0.0,0.0,95,0.00,,---,0.00,0.00,VWS V14.00,2013-01-08 13:05:00,
2013-01-08 07:10:00,15.3,14.1,29.99,SSE,154,0.0,0.0,95,0.00,,---,0.00,0.00,VWS V14.00,2013-01-08 13:10:00,
2013-01-08 07:15:00,15.6,14.4,29.99,SSE,154,0.0,0.0,95,0.00,,---,0.00,0.00,VWS V14.00,2013-01-08 13:15:00,
2013-01-08 07:21:00,15.9,14.5,29.99,SSE,154,0.0,0.0,94,0.00,,---,0.00,0.00,VWS V14.00,2013-01-08 13:21:00,
2013-01-08 07:26:00,16.1,14.7,29.99,SSE,154,0.0,0.0,94,0.00,,---,0.00,0.00,VWS V14.00,2013-01-08 13:26:00,
2013-01-08 07:31:00,16.1,14.4,29.99,SSE,154,0.0,0.0,93,0.00,,---,0.00,0.00,VWS V14.00,2013-01-08 13:31:00,
2013-01-08 07:36:00,16.1,14.4,29.99,SSE,154,0.0,0.0,93,0.00,,---,0.00,0.00,VWS V14.00,2013-01-08 13:36:00,
2013-01-08 07:41:00,16.2,14.5,29.99,SSE,154,0.0,0.0,93,0.00,,---,0.00,0.00,VWS V14.00,2013-01-08 13:41:00,
2013-01-08 07:46:00,16.2,14.5,29.99,SSE,154,0.0,0.0,93,0.00,,---,0.00,0.00,VWS V14.00,2013-01-08 13:46:00,
2013-01-08 07:51:00,16.3,14.6,29.99,SSE,154,0.0,0.0,93,0.00,,---,0.00,5.00,VWS V14.00,2013-01-08 13:51:00,
2013-01-08 07:56:00,16.4,14.7,29.99,SSE,154,0.0,0.0,93,0.00,,---,0.00,7.00,VWS V14.00,2013-01-08 13:56:00,
2013-01-08 08:01:00,16.6,14.9,29.99,SSE,154,0.0,0.0,93,0.00,,---,0.00,11.00,VWS V14.00,2013-01-08 14:01:00,
2013-01-08 08:06:00,16.6,14.9,29.99,SSE,154,0.0,0.0,93,0.00,,---,0.00,16.00,VWS V14.00,2013-01-08 14:06:00,
2013-01-08 08:11:00,16.6,14.9,29.99,SSE,154,0.0,0.0,93,0.00,,---,0.00,19.00,VWS V14.00,2013-01-08 14:11:00,
2013-01-08 08:16:00,16.7,15.0,29.99,SSE,154,0.0,0.0,93,0.00,,---,0.00,23.00,VWS V14.00,2013-01-08 14:16:00,
2013-01-08 08:21:00,16.7,14.8,29.99,SSE,154,0.0,0.0,92,0.00,,---,0.00,25.00,VWS V14.00,2013-01-08 14:21:00,
2013-01-08 08:26:00,16.7,14.8,29.98,SSE,154,0.0,0.0,92,0.00,,---,0.00,28.00,VWS V14.00,2013-01-08 14:26:00,
2013-01-08 08:32:00,16.6,14.7,29.98,SSE,154,0.0,0.0,92,0.00,,---,0.00,33.00,VWS V14.00,2013-01-08 14:32:00,
2013-01-08 08:37:00,16.6,14.7,29.98,SSE,154,0.0,0.0,92,0.00,,---,0.00,33.00,VWS V14.00,2013-01-08 14:37:00,
2013-01-08 08:42:00,16.7,14.8,29.98,SSE,154,0.0,0.0,92,0.00,,---,0.00,35.00,VWS V14.00,2013-01-08 14:42:00,
2013-01-08 08:47:00,16.8,14.9,29.97,SSE,154,0.0,0.0,92,0.00,,---,0.00,40.00,VWS V14.00,2013-01-08 14:47:00,
2013-01-08 08:52:00,16.9,15.2,29.98,SSE,154,0.0,0.0,93,0.00,,---,0.00,44.00,VWS V14.00,2013-01-08 14:52:00,
2013-01-08 08:57:00,17.1,15.4,29.97,SSE,154,0.0,0.0,93,0.00,,---,0.00,47.00,VWS V14.00,2013-01-08 14:57:00,
2013-01-08 09:02:00,17.3,15.6,29.97,SSE,154,0.0,0.0,93,0.00,,---,0.00,42.00,VWS V14.00,2013-01-08 15:02:00,
2013-01-08 09:07:00,17.6,15.9,29.97,SSE,154,0.0,0.0,93,0.00,,---,0.00,46.00,VWS V14.00,2013-01-08 15:07:00,
2013-01-08 09:12:00,18.0,16.6,29.97,SSE,154,0.0,0.0,94,0.00,,---,0.00,60.00,VWS V14.00,2013-01-08 15:12:00,
2013-01-08 09:17:00,18.4,17.0,29.97,SSE,154,0.0,0.0,94,0.00,,---,0.00,70.00,VWS V14.00,2013-01-08 15:17:00,
2013-01-08 09:22:00,19.2,18.0,29.97,SSE,154,0.0,0.0,95,0.00,,---,0.00,77.00,VWS V14.00,2013-01-08 15:22:00,
2013-01-08 09:27:00,19.8,18.6,29.97,SSE,155,0.0,1.0,95,0.00,,---,0.00,102.00,VWS V14.00,2013-01-08 15:27:00,
2013-01-08 09:33:00,20.8,19.6,29.96,SSE,155,0.0,1.0,95,0.00,,---,0.00,130.00,VWS V14.00,2013-01-08 15:33:00,
2013-01-08 09:38:00,21.7,20.5,29.97,SSE,155,0.0,1.0,95,0.00,,---,0.00,139.00,VWS V14.00,2013-01-08 15:38:00,
2013-01-08 09:43:00,22.5,21.3,29.96,SSE,155,0.0,1.0,95,0.00,,---,0.00,142.00,VWS V14.00,2013-01-08 15:43:00,
2013-01-08 09:48:00,23.0,22.0,29.96,East,88,0.0,2.0,96,0.00,,---,0.00,98.00,VWS V14.00,2013-01-08 15:48:00,
2013-01-08 09:53:00,23.5,22.3,29.95,East,88,0.0,2.0,95,0.00,,---,0.00,107.00,VWS V14.00,2013-01-08 15:53:00,
2013-01-08 09:58:00,23.9,22.7,29.95,East,89,0.0,0.0,95,0.00,,---,0.00,65.00,VWS V14.00,2013-01-08 15:58:00,
2013-01-08 10:03:00,24.3,23.1,29.95,East,96,0.0,1.0,95,0.00,,---,0.00,88.00,VWS V14.00,2013-01-08 16:03:00,
2013-01-08 10:08:00,24.6,23.4,29.94,East,97,0.0,1.0,95,0.00,,---,0.00,83.00,VWS V14.00,2013-01-08 16:08:00,
2013-01-08 10:13:00,24.8,23.3,29.94,ESE,117,1.0,1.0,94,0.00,,---,0.00,130.00,VWS V14.00,2013-01-08 16:13:00,
2013-01-08 10:18:00,25.0,23.5,29.93,East,87,0.0,2.0,94,0.00,,---,0.00,144.00,VWS V14.00,2013-01-08 16:18:00,
2013-01-08 10:23:00,25.2,25.2,29.93,NE,42,1.0,3.0,100,0.00,,---,0.00,151.00,VWS V14.00,2013-01-08 16:23:00,
2013-01-08 10:29:00,25.5,23.5,29.93,SE,126,0.0,3.0,92,0.00,,---,0.00,186.00,VWS V14.00,2013-01-08 16:29:00,
2013-01-08 10:34:00,25.9,23.9,29.93,SE,126,0.0,3.0,92,0.00,,---,0.00,206.00,VWS V14.00,2013-01-08 16:34:00,
2013-01-08 10:39:00,26.3,24.0,29.93,ESE,105,2.0,4.0,91,0.00,,---,0.00,186.00,VWS V14.00,2013-01-08 16:39:00,
2013-01-08 10:44:00,26.7,24.2,29.93,ESE,105,1.0,4.0,90,0.00,,---,0.00,185.00,VWS V14.00,2013-01-08 16:44:00,
2013-01-08 10:49:00,27.1,24.3,29.93,ESE,106,0.0,4.0,89,0.00,,---,0.00,155.00,VWS V14.00,2013-01-08 16:49:00,
2013-01-08 10:54:00,27.4,24.3,29.93,SW,229,2.0,4.0,88,0.00,,---,0.00,155.00,VWS V14.00,2013-01-08 16:54:00,
2013-01-08 10:59:00,27.6,24.2,29.92,SE,124,0.0,3.0,87,0.00,,---,0.00,167.00,VWS V14.00,2013-01-08 16:59:00,
2013-01-08 11:04:00,27.8,24.2,29.93,SE,124,0.0,3.0,86,0.00,,---,0.00,148.00,VWS V14.00,2013-01-08 17:04:00,
2013-01-08 11:09:00,28.1,24.5,29.93,SE,124,0.0,3.0,86,0.00,,---,0.00,141.00,VWS V14.00,2013-01-08 17:09:00,
2013-01-08 11:14:00,28.3,24.4,29.93,SE,124,0.0,3.0,85,0.00,,---,0.00,132.00,VWS V14.00,2013-01-08 17:14:00,
2013-01-08 11:19:00,28.5,24.3,29.92,SE,124,0.0,3.0,84,0.00,,---,0.00,130.00,VWS V14.00,2013-01-08 17:19:00,
2013-01-08 11:24:00,28.8,24.6,29.92,SE,124,0.0,3.0,84,0.00,,---,0.00,127.00,VWS V14.00,2013-01-08 17:24:00,
2013-01-08 11:29:00,28.9,24.4,29.92,SE,124,0.0,1.0,83,0.00,,---,0.00,132.00,VWS V14.00,2013-01-08 17:29:00,
2013-01-08 11:34:00,29.2,24.7,29.91,SE,124,0.0,1.0,83,0.00,,---,0.00,134.00,VWS V14.00,2013-01-08 17:34:00,
2013-01-08 11:39:00,29.4,24.9,29.91,SE,124,0.0,1.0,83,0.00,,---,0.00,169.00,VWS V14.00,2013-01-08 17:39:00,
2013-01-08 11:44:00,29.7,25.2,29.91,SE,127,0.0,1.0,83,0.00,,---,0.00,234.00,VWS V14.00,2013-01-08 17:44:00,
2013-01-08 11:50:00,30.2,26.0,29.90,SE,127,0.0,1.0,84,0.00,,---,0.00,274.00,VWS V14.00,2013-01-08 17:50:00,
2013-01-08 11:55:00,30.8,25.7,29.89,South,169,2.0,4.0,81,0.00,,---,0.00,348.00,VWS V14.00,2013-01-08 17:55:00,
2013-01-08 12:00:00,31.3,26.2,29.90,South,169,0.0,0.0,81,0.00,,---,0.00,234.00,VWS V14.00,2013-01-08 18:00:00,
2013-01-08 12:05:00,31.7,25.9,29.89,SSE,157,1.0,2.0,79,0.00,,---,0.00,183.00,VWS V14.00,2013-01-08 18:05:00,
2013-01-08 12:10:00,31.9,25.8,29.88,SE,133,0.0,2.0,78,0.00,,---,0.00,193.00,VWS V14.00,2013-01-08 18:10:00,
2013-01-08 12:15:00,32.0,26.2,29.87,NE,42,0.0,2.0,79,0.00,,---,0.00,297.00,VWS V14.00,2013-01-08 18:15:00,
2013-01-08 12:20:00,32.2,26.1,29.87,ESE,107,3.0,6.0,78,0.00,,---,0.00,241.00,VWS V14.00,2013-01-08 18:20:00,
2013-01-08 12:25:00,32.3,25.9,29.86,ESE,115,0.0,6.0,77,0.00,,---,0.00,237.00,VWS V14.00,2013-01-08 18:25:00,
2013-01-08 12:30:00,32.4,26.0,29.86,South,182,1.0,3.0,77,0.00,,---,0.00,195.00,VWS V14.00,2013-01-08 18:30:00,
2013-01-08 12:35:00,32.4,26.3,29.86,South,181,0.0,3.0,78,0.00,,---,0.00,192.00,VWS V14.00,2013-01-08 18:35:00,
2013-01-08 12:40:00,32.6,26.5,29.86,South,186,0.0,7.0,78,0.00,,---,0.00,257.00,VWS V14.00,2013-01-08 18:40:00,
2013-01-08 12:45:00,32.7,26.6,29.86,South,191,1.0,7.0,78,0.00,,---,0.00,241.00,VWS V14.00,2013-01-08 18:45:00,
2013-01-08 12:50:00,32.9,27.1,29.86,SW,215,0.0,7.0,79,0.00,,---,0.00,262.00,VWS V14.00,2013-01-08 18:50:00,
2013-01-08 12:55:00,33.1,27.0,29.86,SW,236,0.0,7.0,78,0.00,,---,0.00,265.00,VWS V14.00,2013-01-08 18:55:00,
2013-01-08 13:00:00,33.2,27.1,29.87,South,180,1.0,3.0,78,0.00,,---,0.00,244.00,VWS V14.00,2013-01-08 19:00:00,
2013-01-08 13:06:00,33.4,27.0,29.86,South,174,2.0,4.0,77,0.00,,---,0.00,183.00,VWS V14.00,2013-01-08 19:06:00,
2013-01-08 13:11:00,33.4,27.0,29.84,SSE,163,0.0,4.0,77,0.00,,---,0.00,181.00,VWS V14.00,2013-01-08 19:11:00,
2013-01-08 13:16:00,33.3,26.9,29.84,South,188,0.0,4.0,77,0.00,,---,0.00,179.00,VWS V14.00,2013-01-08 19:16:00,
2013-01-08 13:21:00,33.4,27.3,29.83,South,178,2.0,4.0,78,0.00,,---,0.01,339.00,VWS V14.00,2013-01-08 19:21:00,
2013-01-08 13:26:00,33.8,27.7,29.83,SSW,211,2.0,4.0,78,0.00,,---,0.01,366.00,VWS V14.00,2013-01-08 19:26:00,
2013-01-08 13:31:00,34.1,27.7,29.83,East,91,0.0,2.0,77,0.00,,---,0.01,329.00,VWS V14.00,2013-01-08 19:31:00,
2013-01-08 13:36:00,34.4,27.6,29.83,SSW,208,0.0,3.0,76,0.00,,---,0.01,225.00,VWS V14.00,2013-01-08 19:36:00,
2013-01-08 13:41:00,34.5,27.7,29.83,SSW,194,0.0,3.0,76,0.00,,---,0.01,234.00,VWS V14.00,2013-01-08 19:41:00,
2013-01-08 13:46:00,34.6,27.8,29.82,ESE,115,1.0,3.0,76,0.00,,---,0.01,178.00,VWS V14.00,2013-01-08 19:46:00,
2013-01-08 13:51:00,34.5,27.4,29.82,South,188,0.0,4.0,75,0.00,,---,0.01,181.00,VWS V14.00,2013-01-08 19:51:00,
2013-01-08 13:57:00,34.4,27.6,29.82,SSW,198,1.0,4.0,76,0.00,,---,0.02,171.00,VWS V14.00,2013-01-08 19:57:00,
2013-01-08 14:02:00,34.4,27.6,29.82,South,175,0.0,2.0,76,0.00,,---,0.02,172.00,VWS V14.00,2013-01-08 20:02:00,
2013-01-08 14:07:00,34.4,28.0,29.82,South,175,0.0,2.0,77,0.00,,---,0.02,125.00,VWS V14.00,2013-01-08 20:07:00,
2013-01-08 14:12:00,34.4,28.0,29.82,SSE,148,0.0,5.0,77,0.00,,---,0.02,134.00,VWS V14.00,2013-01-08 20:12:00,
2013-01-08 14:17:00,34.1,27.7,29.82,South,177,0.0,7.0,77,0.00,,---,0.02,135.00,VWS V14.00,2013-01-08 20:17:00,
2013-01-08 14:22:00,33.9,27.5,29.82,South,181,2.0,7.0,77,0.00,,---,0.02,146.00,VWS V14.00,2013-01-08 20:22:00,
2013-01-08 14:27:00,33.8,27.7,29.82,SSE,165,0.0,7.0,78,0.00,,---,0.02,128.00,VWS V14.00,2013-01-08 20:27:00,
2013-01-08 14:32:00,33.7,27.6,29.82,SSW,207,1.0,3.0,78,0.00,,---,0.02,114.00,VWS V14.00,2013-01-08 20:32:00,
2013-01-08 14:37:00,33.5,27.4,29.81,SSE,165,0.0,4.0,78,0.00,,---,0.02,111.00,VWS V14.00,2013-01-08 20:37:00,
2013-01-08 14:42:00,33.4,27.3,29.82,South,184,0.0,4.0,78,0.00,,---,0.03,118.00,VWS V14.00,2013-01-08 20:42:00,
2013-01-08 14:48:00,33.2,27.1,29.81,SSW,207,0.0,7.0,78,0.00,,---,0.03,123.00,VWS V14.00,2013-01-08 20:48:00,
2013-01-08 14:53:00,33.1,27.0,29.82,South,178,2.0,7.0,78,0.00,,---,0.03,121.00,VWS V14.00,2013-01-08 20:53:00,
2013-01-08 14:58:00,33.0,27.2,29.82,South,172,0.0,0.0,79,0.00,,---,0.03,116.00,VWS V14.00,2013-01-08 20:58:00,
2013-01-08 15:03:00,32.9,27.4,29.81,SSW,200,0.0,4.0,80,0.00,,---,0.03,105.00,VWS V14.00,2013-01-08 21:03:00,
2013-01-08 15:08:00,32.8,27.3,29.82,South,178,2.0,4.0,80,0.00,,---,0.03,83.00,VWS V14.00,2013-01-08 21:08:00,
2013-01-08 15:13:00,32.6,27.1,29.81,SSE,153,0.0,4.0,80,0.00,,---,0.03,69.00,VWS V14.00,2013-01-08 21:13:00,
2013-01-08 15:18:00,32.5,27.3,29.81,South,187,0.0,7.0,81,0.00,,---,0.03,79.00,VWS V14.00,2013-01-08 21:18:00,
2013-01-08 15:23:00,32.4,27.2,29.81,SW,223,0.0,7.0,81,0.00,,---,0.03,67.00,VWS V14.00,2013-01-08 21:23:00,
2013-01-08 15:28:00,32.3,27.1,29.81,SSW,209,3.0,3.0,81,0.00,,---,0.03,62.00,VWS V14.00,2013-01-08 21:28:00,
2013-01-08 15:33:00,32.2,27.0,29.82,South,173,0.0,4.0,81,0.00,,---,0.03,62.00,VWS V14.00,2013-01-08 21:33:00,
2013-01-08 15:39:00,32.1,27.2,29.81,SW,217,0.0,4.0,82,0.00,,---,0.03,58.00,VWS V14.00,2013-01-08 21:39:00,
2013-01-08 15:44:00,32.1,27.2,29.82,SSE,157,0.0,4.0,82,0.00,,---,0.03,44.00,VWS V14.00,2013-01-08 21:44:00,
2013-01-08 15:49:00,32.0,27.1,29.82,SE,139,0.0,4.0,82,0.00,,---,0.03,37.00,VWS V14.00,2013-01-08 21:49:00,
2013-01-08 15:54:00,31.9,27.3,29.82,SSE,165,0.0,4.0,83,0.00,,---,0.03,42.00,VWS V14.00,2013-01-08 21:54:00,
2013-01-08 15:59:00,31.9,27.3,29.81,WSW,241,0.0,1.0,83,0.00,,---,0.03,39.00,VWS V14.00,2013-01-08 21:59:00,
2013-01-08 16:04:00,31.8,27.5,29.80,SE,146,0.0,2.0,84,0.00,,---,0.03,32.00,VWS V14.00,2013-01-08 22:04:00,
2013-01-08 16:09:00,31.7,27.4,29.81,SE,146,0.0,2.0,84,0.00,,---,0.03,28.00,VWS V14.00,2013-01-08 22:09:00,
2013-01-08 16:14:00,31.7,27.4,29.80,SE,146,1.0,2.0,84,0.00,,---,0.03,32.00,VWS V14.00,2013-01-08 22:14:00,
2013-01-08 16:19:00,31.6,27.3,29.80,South,188,0.0,4.0,84,0.00,,---,0.03,21.00,VWS V14.00,2013-01-08 22:19:00,
2013-01-08 16:24:00,31.6,27.6,29.80,SSW,197,1.0,4.0,85,0.00,,---,0.03,18.00,VWS V14.00,2013-01-08 22:24:00,
2013-01-08 16:30:00,31.5,27.5,29.81,SSW,197,0.0,2.0,85,0.00,,---,0.03,14.00,VWS V14.00,2013-01-08 22:30:00,
2013-01-08 16:35:00,31.5,27.5,29.81,SSW,202,0.0,4.0,85,0.00,,---,0.04,9.00,VWS V14.00,2013-01-08 22:35:00,
2013-01-08 16:40:00,31.5,27.8,29.80,South,182,0.0,4.0,86,0.00,,---,0.04,9.00,VWS V14.00,2013-01-08 22:40:00,
2013-01-08 16:45:00,31.4,27.7,29.80,South,182,2.0,4.0,86,0.00,,---,0.04,5.00,VWS V14.00,2013-01-08 22:45:00,
2013-01-08 16:50:00,31.4,27.7,29.80,South,182,0.0,4.0,86,0.00,,---,0.04,5.00,VWS V14.00,2013-01-08 22:50:00,
2013-01-08 16:55:00,31.3,27.6,29.81,South,191,0.0,4.0,86,0.00,,---,0.04,0.00,VWS V14.00,2013-01-08 22:55:00,
2013-01-08 17:00:00,31.3,27.9,29.81,SSE,165,0.0,3.0,87,0.00,,---,0.04,0.00,VWS V14.00,2013-01-08 23:00:00,
2013-01-08 17:05:00,31.3,27.9,29.81,SSE,168,1.0,3.0,87,0.00,,---,0.04,0.00,VWS V14.00,2013-01-08 23:05:00,
2013-01-08 17:10:00,31.4,28.3,29.81,WSW,238,0.0,3.0,88,0.00,,---,0.04,0.00,VWS V14.00,2013-01-08 23:10:00,
2013-01-08 17:16:00,31.5,28.4,29.81,SSE,159,4.0,9.0,88,0.00,,---,0.04,0.00,VWS V14.00,2013-01-08 23:16:00,
2013-01-08 17:21:00,31.6,28.5,29.81,SE,129,2.0,9.0,88,0.00,,---,0.04,0.00,VWS V14.00,2013-01-08 23:21:00,
2013-01-08 17:26:00,31.6,28.5,29.80,SW,215,0.0,9.0,88,0.00,,---,0.04,0.00,VWS V14.00,2013-01-08 23:26:00,
2013-01-08 17:31:00,31.6,28.5,29.81,SSE,148,0.0,6.0,88,0.00,,---,0.04,0.00,VWS V14.00,2013-01-08 23:31:00,
2013-01-08 17:36:00,31.6,28.5,29.81,South,184,1.0,6.0,88,0.00,,---,0.04,0.00,VWS V14.00,2013-01-08 23:36:00,
2013-01-08 17:41:00,31.6,28.5,29.81,SSW,196,4.0,6.0,88,0.00,,---,0.04,0.00,VWS V14.00,2013-01-08 23:41:00,
2013-01-08 17:46:00,31.7,28.6,29.80,South,185,0.0,6.0,88,0.00,,---,0.04,0.00,VWS V14.00,2013-01-08 23:46:00,
2013-01-08 17:51:00,31.7,28.6,29.81,South,185,0.0,6.0,88,0.00,,---,0.04,0.00,VWS V14.00,2013-01-08 23:51:00,
2013-01-08 17:56:00,31.6,28.5,29.81,South,186,0.0,6.0,88,0.00,,---,0.04,0.00,VWS V14.00,2013-01-08 23:56:00,
2013-01-08 18:01:00,31.6,28.5,29.81,SW,214,0.0,6.0,88,0.00,,---,0.04,0.00,VWS V14.00,2013-01-09 00:01:00,
2013-01-08 18:06:00,31.5,28.4,29.82,SSE,156,0.0,6.0,88,0.00,,---,0.04,0.00,VWS V14.00,2013-01-09 00:06:00,
2013-01-08 18:11:00,31.6,28.5,29.81,ESE,121,0.0,6.0,88,0.00,,---,0.04,0.00,VWS V14.00,2013-01-09 00:11:00,
2013-01-08 18:17:00,31.5,28.4,29.81,South,184,1.0,6.0,88,0.00,,---,0.04,0.00,VWS V14.00,2013-01-09 00:17:00,
2013-01-08 18:22:00,31.5,28.4,29.81,ESE,118,0.0,6.0,88,0.00,,---,0.04,0.00,VWS V14.00,2013-01-09 00:22:00,
2013-01-08 18:27:00,31.4,28.3,29.81,South,174,0.0,6.0,88,0.00,,---,0.04,0.00,VWS V14.00,2013-01-09 00:27:00,
2013-01-08 18:32:00,31.4,28.3,29.82,SSW,192,0.0,4.0,88,0.00,,---,0.04,0.00,VWS V14.00,2013-01-09 00:32:00,
2013-01-08 18:37:00,31.4,28.3,29.82,ESE,123,0.0,4.0,88,0.00,,---,0.04,0.00,VWS V14.00,2013-01-09 00:37:00,
2013-01-08 18:42:00,31.3,28.2,29.82,SE,131,0.0,4.0,88,0.00,,---,0.04,0.00,VWS V14.00,2013-01-09 00:42:00,
2013-01-08 18:47:00,31.3,27.9,29.82,SE,141,0.0,5.0,87,0.00,,---,0.04,0.00,VWS V14.00,2013-01-09 00:47:00,
2013-01-08 18:52:00,31.3,27.9,29.82,SW,215,4.0,6.0,87,0.00,,---,0.04,0.00,VWS V14.00,2013-01-09 00:52:00,
2013-01-08 18:57:00,31.2,27.8,29.82,SSW,192,0.0,6.0,87,0.00,,---,0.04,0.00,VWS V14.00,2013-01-09 00:57:00,
2013-01-08 19:03:00,30.9,27.5,29.82,South,187,0.0,1.0,87,0.00,,---,0.04,0.00,VWS V14.00,2013-01-09 01:03:00,
2013-01-08 19:08:00,30.6,27.2,29.83,South,173,1.0,1.0,87,0.00,,---,0.04,0.00,VWS V14.00,2013-01-09 01:08:00,
2013-01-08 19:13:00,30.5,27.4,29.83,South,179,0.0,3.0,88,0.00,,---,0.04,0.00,VWS V14.00,2013-01-09 01:13:00,
2013-01-08 19:18:00,30.2,27.1,29.83,South,178,1.0,3.0,88,0.00,,---,0.04,0.00,VWS V14.00,2013-01-09 01:18:00,
2013-01-08 19:23:00,30.1,27.0,29.84,SSE,162,0.0,4.0,88,0.00,,---,0.04,0.00,VWS V14.00,2013-01-09 01:23:00,
2013-01-08 19:28:00,29.8,26.7,29.84,SSE,161,0.0,0.0,88,0.00,,---,0.04,0.00,VWS V14.00,2013-01-09 01:28:00,
2013-01-08 19:33:00,29.7,26.6,29.84,SE,133,0.0,5.0,88,0.00,,---,0.04,0.00,VWS V14.00,2013-01-09 01:33:00,
2013-01-08 19:38:00,29.6,26.5,29.84,East,82,0.0,5.0,88,0.00,,---,0.04,0.00,VWS V14.00,2013-01-09 01:38:00,
2013-01-08 19:43:00,29.4,26.3,29.84,ENE,73,4.0,5.0,88,0.00,,---,0.04,0.00,VWS V14.00,2013-01-09 01:43:00,
2013-01-08 19:48:00,29.3,26.2,29.84,South,183,0.0,5.0,88,0.00,,---,0.04,0.00,VWS V14.00,2013-01-09 01:48:00,
2013-01-08 19:53:00,29.2,26.1,29.84,SSE,163,0.0,6.0,88,0.00,,---,0.04,0.00,VWS V14.00,2013-01-09 01:53:00,
2013-01-08 19:58:00,29.0,25.9,29.85,South,172,0.0,3.0,88,0.00,,---,0.04,0.00,VWS V14.00,2013-01-09 01:58:00,
2013-01-08 20:03:00,28.9,25.8,29.85,South,180,3.0,5.0,88,0.00,,---,0.04,0.00,VWS V14.00,2013-01-09 02:03:00,
2013-01-08 20:08:00,28.7,25.6,29.85,SW,219,0.0,5.0,88,0.00,,---,0.04,0.00,VWS V14.00,2013-01-09 02:08:00,
2013-01-08 20:13:00,28.5,25.4,29.85,South,189,0.0,5.0,88,0.00,,---,0.04,0.00,VWS V14.00,2013-01-09 02:13:00,
2013-01-08 20:19:00,28.3,25.2,29.85,SSE,160,0.0,5.0,88,0.00,,---,0.04,0.00,VWS V14.00,2013-01-09 02:19:00,
2013-01-08 20:24:00,28.2,25.1,29.85,SSE,154,0.0,5.0,88,0.00,,---,0.04,0.00,VWS V14.00,2013-01-09 02:24:00,
2013-01-08 20:29:00,28.0,24.9,29.85,SSE,168,0.0,3.0,88,0.00,,---,0.04,0.00,VWS V14.00,2013-01-09 02:29:00,
2013-01-08 20:34:00,27.9,24.8,29.86,SE,130,0.0,3.0,88,0.00,,---,0.04,0.00,VWS V14.00,2013-01-09 02:34:00,
2013-01-08 20:39:00,27.9,25.1,29.86,SE,130,0.0,3.0,89,0.00,,---,0.04,0.00,VWS V14.00,2013-01-09 02:39:00,
2013-01-08 20:44:00,28.0,25.2,29.86,SSE,166,0.0,3.0,89,0.00,,---,0.04,0.00,VWS V14.00,2013-01-09 02:44:00,
2013-01-08 20:49:00,28.1,25.3,29.87,South,190,2.0,3.0,89,0.00,,---,0.04,0.00,VWS V14.00,2013-01-09 02:49:00,
2013-01-08 20:54:00,28.3,25.5,29.87,East,86,0.0,3.0,89,0.00,,---,0.04,0.00,VWS V14.00,2013-01-09 02:54:00,
2013-01-08 20:59:00,28.4,25.6,29.87,SSE,150,0.0,2.0,89,0.00,,---,0.04,0.00,VWS V14.00,2013-01-09 02:59:00,
2013-01-08 21:05:00,28.5,25.7,29.87,SSE,150,1.0,2.0,89,0.00,,---,0.04,0.00,VWS V14.00,2013-01-09 03:05:00,
2013-01-08 21:10:00,28.7,25.9,29.88,South,175,0.0,2.0,89,0.00,,---,0.04,0.00,VWS V14.00,2013-01-09 03:10:00,
2013-01-08 21:15:00,28.9,25.8,29.87,SSE,163,1.0,4.0,88,0.00,,---,0.04,0.00,VWS V14.00,2013-01-09 03:15:00,
2013-01-08 21:20:00,29.2,26.1,29.88,SSE,159,0.0,4.0,88,0.00,,---,0.04,0.00,VWS V14.00,2013-01-09 03:20:00,
2013-01-08 21:25:00,29.3,26.2,29.88,SSE,159,1.0,4.0,88,0.00,,---,0.04,0.00,VWS V14.00,2013-01-09 03:25:00,
2013-01-08 21:30:00,29.5,26.4,29.88,West,281,1.0,4.0,88,0.00,,---,0.04,0.00,VWS V14.00,2013-01-09 03:30:00,
2013-01-08 21:35:00,29.6,26.5,29.89,WSW,255,0.0,4.0,88,0.00,,---,0.04,0.00,VWS V14.00,2013-01-09 03:35:00,
2013-01-08 21:40:00,29.8,26.7,29.89,SSW,200,2.0,4.0,88,0.00,,---,0.04,0.00,VWS V14.00,2013-01-09 03:40:00,
2013-01-08 21:45:00,30.0,26.6,29.90,SW,222,0.0,4.0,87,0.00,,---,0.04,0.00,VWS V14.00,2013-01-09 03:45:00,
2013-01-08 21:50:00,30.1,26.7,29.90,WSW,246,0.0,4.0,87,0.00,,---,0.04,0.00,VWS V14.00,2013-01-09 03:50:00,
2013-01-08 21:55:00,30.0,26.3,29.89,SSW,202,0.0,4.0,86,0.00,,---,0.04,0.00,VWS V14.00,2013-01-09 03:55:00,
2013-01-08 22:00:00,29.8,26.1,29.90,SSW,202,0.0,0.0,86,0.00,,---,0.04,0.00,VWS V14.00,2013-01-09 04:00:00,
2013-01-08 22:05:00,29.5,25.8,29.90,SSW,196,0.0,1.0,86,0.00,,---,0.04,0.00,VWS V14.00,2013-01-09 04:05:00,
2013-01-08 22:10:00,29.2,25.5,29.91,SSW,196,0.0,2.0,86,0.00,,---,0.04,0.00,VWS V14.00,2013-01-09 04:10:00,
2013-01-08 22:15:00,28.9,25.2,29.91,SE,134,0.0,2.0,86,0.00,,---,0.04,0.00,VWS V14.00,2013-01-09 04:15:00,
2013-01-08 22:20:00,28.7,25.0,29.91,SSW,211,0.0,2.0,86,0.00,,---,0.04,0.00,VWS V14.00,2013-01-09 04:20:00,
2013-01-08 22:25:00,28.4,24.8,29.92,South,179,0.0,2.0,86,0.00,,---,0.04,0.00,VWS V14.00,2013-01-09 04:25:00,
2013-01-08 22:30:00,28.2,24.8,29.92,SSE,168,0.0,1.0,87,0.00,,---,0.04,0.00,VWS V14.00,2013-01-09 04:30:00,
2013-01-08 22:36:00,28.0,24.6,29.92,SSE,168,0.0,1.0,87,0.00,,---,0.04,0.00,VWS V14.00,2013-01-09 04:36:00,
2013-01-08 22:41:00,27.9,24.5,29.93,SSE,148,0.0,2.0,87,0.00,,---,0.04,0.00,VWS V14.00,2013-01-09 04:41:00,
2013-01-08 22:46:00,27.8,24.7,29.93,South,173,0.0,2.0,88,0.00,,---,0.04,0.00,VWS V14.00,2013-01-09 04:46:00,
2013-01-08 22:51:00,27.8,24.7,29.93,SE,134,0.0,3.0,88,0.00,,---,0.04,0.00,VWS V14.00,2013-01-09 04:51:00,
2013-01-08 22:56:00,27.6,24.5,29.93,South,183,0.0,3.0,88,0.00,,---,0.04,0.00,VWS V14.00,2013-01-09 04:56:00,
2013-01-08 23:00:00,27.6,24.5,29.93,South,182,0.0,2.0,88,0.00,,---,0.04,0.00,VWS V14.00,2013-01-09 05:00:00,
2013-01-08 23:01:00,27.6,24.5,29.93,South,182,0.0,2.0,88,0.00,,---,0.04,0.00,VWS V14.00,2013-01-09 05:01:00,
2013-01-08 23:02:00,27.6,24.5,29.93,South,182,0.0,2.0,88,0.00,,---,0.04,0.00,VWS V14.00,2013-01-09 05:02:00,
2013-01-08 23:07:00,27.6,24.5,29.94,South,182,0.0,2.0,88,0.00,,---,0.04,0.00,VWS V14.00,2013-01-09 05:07:00,
2013-01-08 23:12:00,27.6,24.8,29.94,South,181,0.0,2.0,89,0.00,,---,0.04,0.00,VWS V14.00,2013-01-09 05:12:00,
2013-01-08 23:17:00,27.6,24.8,29.94,South,180,0.0,2.0,89,0.00,,---,0.04,0.00,VWS V14.00,2013-01-09 05:17:00,
2013-01-08 23:22:00,27.6,24.8,29.94,South,180,0.0,2.0,89,0.00,,---,0.04,0.00,VWS V14.00,2013-01-09 05:22:00,
2013-01-08 23:28:00,27.6,24.8,29.95,South,179,0.0,2.0,89,0.00,,---,0.04,0.00,VWS V14.00,2013-01-09 05:28:00,
2013-01-08 23:33:00,27.7,24.9,29.95,South,179,0.0,2.0,89,0.00,,---,0.04,0.00,VWS V14.00,2013-01-09 05:33:00,
2013-01-08 23:38:00,27.8,25.0,29.95,South,180,1.0,2.0,89,0.00,,---,0.04,0.00,VWS V14.00,2013-01-09 05:38:00,
2013-01-08 23:43:00,27.9,25.1,29.95,South,179,0.0,2.0,89,0.00,,---,0.04,0.00,VWS V14.00,2013-01-09 05:43:00,
2013-01-08 23:48:00,27.9,25.1,29.95,South,179,0.0,2.0,89,0.00,,---,0.04,0.00,VWS V14.00,2013-01-09 05:48:00,
2013-01-08 23:53:00,27.9,25.1,29.95,South,179,0.0,2.0,89,0.00,,---,0.04,0.00,VWS V14.00,2013-01-09 05:53:00,
2013-01-08 23:58:00,27.9,25.1,29.95,SE,141,0.0,0.0,89,0.00,,---,0.00,0.00,VWS V14.00,2013-01-09 05:58:00,